createdAt,value
2019-02-19T00:02:01.100Z,11.77
2019-02-19T00:04:33.019Z,7.37
2019-02-19T00:07:03.486Z,10.40
2019-02-19T00:09:33.943Z,14.13
2019-02-19T00:12:07.125Z,15.07
2019-02-19T00:14:39.291Z,12.50
2019-02-19T00:17:09.926Z,14.37
2019-02-19T00:19:40.381Z,7.60
2019-02-19T00:22:10.855Z,6.00
2019-02-19T00:24:41.269Z,13.20
2019-02-19T00:27:12.313Z,14.03
2019-02-19T00:29:46.700Z,6.60
2019-02-19T00:32:17.268Z,11.27
2019-02-19T00:34:47.806Z,6.00
2019-02-19T00:37:18.333Z,7.37
2019-02-19T00:39:48.793Z,6.67
2019-02-19T00:42:19.197Z,6.50
2019-02-19T00:44:50.483Z,7.37
2019-02-19T00:47:20.966Z,8.83
2019-02-19T00:49:51.495Z,7.47
2019-02-19T00:52:21.981Z,7.57
2019-02-19T00:54:52.585Z,7.17
2019-02-19T00:57:23.037Z,5.90
2019-02-19T00:59:53.539Z,7.37
2019-02-19T01:02:23.990Z,7.10
2019-02-19T01:04:54.628Z,7.77
2019-02-19T01:07:26.041Z,11.57
2019-02-19T01:09:56.611Z,7.27
2019-02-19T01:12:27.144Z,7.90
2019-02-19T01:14:57.699Z,10.10
2019-02-19T01:17:29.551Z,8.03
2019-02-19T01:20:00.278Z,10.80
2019-02-19T01:22:32.391Z,12.27
2019-02-19T01:25:02.899Z,11.00
2019-02-19T01:27:33.367Z,13.00
2019-02-19T01:30:04.729Z,10.80
2019-02-19T01:32:35.244Z,9.60
2019-02-19T01:35:07.346Z,12.07
2019-02-19T01:37:37.858Z,10.00
2019-02-19T01:40:14.430Z,17.00
2019-02-19T01:42:47.463Z,15.97
2019-02-19T01:45:20.297Z,14.47
2019-02-19T01:47:50.821Z,15.70
2019-02-19T01:50:22.901Z,10.80
2019-02-19T01:52:53.471Z,9.80
2019-02-19T01:55:23.945Z,12.80
2019-02-19T01:57:57.354Z,10.47
2019-02-19T02:00:29.425Z,15.73
2019-02-19T02:03:00.046Z,14.37
2019-02-19T02:05:30.468Z,15.47
2019-02-19T02:08:06.968Z,15.10
2019-02-19T02:10:37.380Z,8.20
2019-02-19T02:13:08.211Z,8.93
2019-02-19T02:15:42.723Z,16.80
2019-02-19T02:18:12.578Z,16.13
2019-02-19T02:20:43.049Z,13.63
2019-02-19T02:23:13.581Z,10.00
2019-02-19T02:25:44.113Z,10.00
2019-02-19T02:28:17.770Z,14.77
2019-02-19T02:30:48.236Z,17.93
2019-02-19T02:33:21.949Z,18.67
2019-02-19T02:35:53.918Z,17.57
2019-02-19T02:38:24.337Z,11.37
2019-02-19T02:40:56.618Z,10.80
2019-02-19T02:43:38.361Z,11.23
2019-02-19T02:46:08.921Z,14.07
2019-02-19T02:48:39.337Z,11.80
2019-02-19T02:51:09.968Z,13.93
2019-02-19T02:53:40.413Z,17.07
2019-02-19T02:56:10.942Z,18.80
2019-02-19T02:58:41.480Z,15.33
2019-02-19T03:01:12.111Z,17.40
2019-02-19T03:03:42.554Z,16.90
2019-02-19T03:06:29.895Z,14.80
2019-02-19T03:09:00.456Z,12.57
2019-02-19T03:11:30.982Z,12.70
2019-02-19T03:14:01.522Z,9.57
2019-02-19T03:16:34.946Z,16.73
2019-02-19T03:19:05.501Z,9.13
2019-02-19T03:21:38.363Z,17.90
2019-02-19T03:24:08.841Z,19.40
2019-02-19T03:26:39.276Z,14.37
2019-02-19T03:29:18.319Z,17.80
2019-02-19T03:31:48.904Z,18.23
2019-02-19T03:34:19.460Z,17.47
2019-02-19T03:36:49.859Z,19.03
2019-02-19T03:39:21.331Z,18.00
2019-02-19T03:41:51.803Z,18.07
2019-02-19T03:44:22.328Z,23.23
2019-02-19T03:46:52.780Z,17.87
2019-02-19T03:49:23.349Z,19.10
2019-02-19T03:51:53.738Z,19.57
2019-02-19T03:54:24.304Z,19.23
2019-02-19T03:56:55.230Z,18.87
2019-02-19T03:59:25.772Z,20.47
2019-02-19T04:01:56.540Z,21.13
2019-02-19T04:04:28.180Z,21.70
2019-02-19T04:06:58.757Z,21.37
2019-02-19T04:09:29.317Z,21.50
2019-02-19T04:11:59.735Z,29.35
2019-02-19T04:14:30.278Z,24.70
2019-02-19T04:17:00.697Z,25.13
2019-02-19T04:19:31.369Z,23.47
2019-02-19T04:22:01.851Z,24.27
2019-02-19T04:24:32.503Z,24.17
2019-02-19T04:27:03.209Z,23.27
2019-02-19T04:29:33.749Z,23.10
2019-02-19T04:32:04.633Z,22.87
2019-02-19T04:34:35.289Z,23.40
2019-02-19T04:37:05.751Z,22.87
2019-02-19T04:39:36.326Z,22.83
2019-02-19T04:42:09.670Z,22.20
2019-02-19T04:44:40.253Z,21.60
2019-02-19T04:47:14.791Z,20.30
2019-02-19T04:49:47.413Z,20.73
2019-02-19T04:52:17.758Z,20.17
2019-02-19T04:54:48.723Z,20.37
2019-02-19T04:57:19.468Z,19.57
2019-02-19T04:59:53.128Z,26.13
2019-02-19T05:02:23.658Z,22.83
2019-02-19T05:04:55.601Z,22.93
2019-02-19T05:07:26.112Z,23.40
2019-02-19T05:09:58.266Z,22.73
2019-02-19T05:12:28.701Z,23.93
2019-02-19T05:14:59.172Z,23.87
2019-02-19T05:17:30.948Z,23.93
2019-02-19T05:20:02.244Z,24.70
2019-02-19T05:22:32.667Z,30.73
2019-02-19T05:25:03.186Z,30.97
2019-02-19T05:27:34.291Z,30.10
2019-02-19T05:30:06.753Z,27.40
2019-02-19T05:32:37.121Z,26.57
2019-02-19T05:35:08.422Z,25.95
2019-02-19T05:37:38.804Z,35.80
2019-02-19T05:40:10.401Z,28.00
2019-02-19T05:42:40.899Z,28.80
2019-02-19T05:45:11.466Z,27.27
2019-02-19T05:47:41.885Z,28.93
2019-02-19T05:50:12.371Z,26.80
2019-02-19T05:52:45.103Z,27.47
2019-02-19T05:55:15.599Z,27.23
2019-02-19T05:57:46.089Z,22.73
2019-02-19T06:00:16.651Z,20.70
2019-02-19T06:02:48.851Z,24.82
2019-02-19T06:05:19.426Z,28.07
2019-02-19T06:07:49.893Z,31.80
2019-02-19T06:10:21.718Z,28.97
2019-02-19T06:12:53.208Z,26.40
2019-02-19T06:15:23.739Z,28.83
2019-02-19T06:17:57.097Z,26.37
2019-02-19T06:20:28.229Z,25.67
2019-02-19T06:22:58.823Z,27.23
2019-02-19T06:25:29.336Z,24.97
2019-02-19T06:28:00.096Z,28.20
2019-02-19T06:30:30.708Z,26.57
2019-02-19T06:33:01.176Z,26.47
2019-02-19T06:35:31.629Z,25.17
2019-02-19T06:38:04.884Z,19.87
2019-02-19T06:40:35.555Z,24.53
2019-02-19T06:43:05.973Z,23.60
2019-02-19T06:45:36.384Z,18.83
2019-02-19T06:48:08.532Z,15.77
2019-02-19T06:50:38.960Z,18.63
2019-02-19T06:53:09.414Z,20.03
2019-02-19T06:55:39.944Z,16.40
2019-02-19T06:58:10.401Z,20.12
2019-02-19T07:00:40.814Z,20.27
2019-02-19T07:03:12.839Z,22.53
2019-02-19T07:05:43.296Z,18.17
2019-02-19T07:08:13.943Z,19.67
2019-02-19T07:10:44.589Z,20.60
2019-02-19T07:13:15.025Z,17.10
2019-02-19T07:15:45.456Z,15.80
2019-02-19T07:18:15.915Z,17.60
2019-02-19T07:20:46.484Z,15.33
2019-02-19T07:23:16.958Z,15.00
2019-02-19T07:25:47.425Z,14.43
2019-02-19T07:28:17.886Z,13.50
2019-02-19T07:30:48.482Z,13.20
2019-02-19T07:33:19.138Z,14.27
2019-02-19T07:35:52.870Z,16.50
2019-02-19T07:38:23.406Z,15.70
2019-02-19T07:40:53.892Z,15.33
2019-02-19T07:43:24.274Z,15.47
2019-02-19T07:45:55.961Z,15.77
2019-02-19T07:48:26.476Z,16.20
2019-02-19T07:50:58.499Z,14.97
2019-02-19T07:53:30.410Z,13.53
2019-02-19T07:56:01.959Z,12.70
2019-02-19T07:58:33.902Z,10.73
2019-02-19T08:01:04.482Z,8.43
2019-02-19T08:03:37.681Z,8.03
2019-02-19T08:06:09.417Z,6.73
2019-02-19T08:08:41.117Z,8.90
2019-02-19T08:11:12.050Z,7.77
2019-02-19T08:13:42.463Z,6.60
2019-02-19T08:16:12.891Z,6.57
2019-02-19T08:18:43.372Z,6.60
2019-02-19T08:21:13.877Z,6.60
2019-02-19T08:23:44.343Z,6.57
2019-02-19T08:26:14.787Z,11.77
2019-02-19T08:28:45.603Z,8.53
2019-02-19T08:31:17.639Z,7.60
2019-02-19T08:33:48.068Z,8.00
2019-02-19T08:36:18.502Z,10.53
2019-02-19T08:38:49.011Z,10.30
2019-02-19T08:41:19.469Z,8.07
2019-02-19T08:43:49.917Z,7.80
2019-02-19T08:46:20.468Z,7.90
2019-02-19T08:48:50.935Z,8.10
2019-02-19T08:51:21.364Z,7.80
2019-02-19T08:53:51.856Z,7.77
2019-02-19T08:56:22.408Z,7.40
2019-02-19T08:58:52.844Z,8.93
2019-02-19T09:01:24.908Z,7.37
2019-02-19T09:03:55.364Z,8.17
2019-02-19T09:06:27.617Z,12.87
2019-02-19T09:08:58.000Z,8.67
2019-02-19T09:11:29.018Z,7.17
2019-02-19T09:14:01.028Z,6.93
2019-02-19T09:16:31.673Z,6.47
2019-02-19T09:19:03.741Z,10.40
2019-02-19T09:21:34.837Z,7.27
2019-02-19T09:24:09.471Z,6.17
2019-02-19T09:26:37.389Z,7.00
2019-02-19T09:29:07.805Z,6.70
2019-02-19T09:31:38.238Z,6.80
2019-02-19T09:34:08.621Z,5.50
2019-02-19T09:36:39.002Z,5.87
2019-02-19T09:39:09.531Z,9.70
2019-02-19T09:41:39.963Z,10.10
2019-02-19T09:44:10.415Z,16.40
2019-02-19T09:46:40.787Z,5.07
2019-02-19T09:49:11.270Z,5.50
2019-02-19T09:51:41.805Z,4.60
2019-02-19T09:54:12.257Z,5.13
2019-02-19T09:56:44.911Z,4.27
2019-02-19T09:59:25.345Z,5.03
2019-02-19T10:01:56.186Z,5.43
2019-02-19T10:04:26.578Z,4.63
2019-02-19T10:06:56.989Z,4.67
2019-02-19T10:09:27.422Z,4.70
2019-02-19T10:11:57.972Z,4.23
2019-02-19T10:14:28.410Z,6.60
2019-02-19T10:17:00.455Z,11.20
2019-02-19T10:19:30.963Z,5.30
2019-02-19T10:22:01.619Z,7.30
2019-02-19T10:24:32.162Z,4.60
2019-02-19T10:27:02.563Z,4.07
2019-02-19T10:29:33.081Z,6.07
2019-02-19T10:32:03.634Z,4.33
2019-02-19T10:34:34.097Z,4.20
2019-02-19T10:37:06.947Z,4.57
2019-02-19T10:39:37.415Z,6.43
2019-02-19T10:42:07.900Z,4.50
2019-02-19T10:44:38.450Z,4.63
2019-02-19T10:47:08.851Z,4.13
2019-02-19T10:49:39.326Z,4.03
2019-02-19T10:52:11.327Z,4.10
2019-02-19T10:54:42.016Z,4.40
2019-02-19T10:57:12.491Z,4.80
2019-02-19T10:59:42.844Z,5.20
2019-02-19T11:02:13.288Z,4.40
2019-02-19T11:04:43.974Z,4.57
2019-02-19T11:07:14.412Z,4.13
2019-02-19T11:09:44.870Z,4.10
2019-02-19T11:12:17.824Z,4.50
2019-02-19T11:14:48.200Z,5.40
2019-02-19T11:17:20.195Z,5.70
2019-02-19T11:19:50.621Z,10.23
2019-02-19T11:22:21.098Z,9.05
2019-02-19T11:24:51.590Z,5.67
2019-02-19T11:27:22.027Z,4.30
2019-02-19T11:29:52.468Z,4.37
2019-02-19T11:32:23.014Z,3.77
2019-02-19T11:34:53.483Z,4.37
2019-02-19T11:37:25.441Z,4.27
2019-02-19T11:39:55.841Z,4.03
2019-02-19T11:42:26.332Z,4.13
2019-02-19T11:44:56.738Z,5.13
2019-02-19T11:47:27.211Z,4.13
2019-02-19T11:49:57.607Z,3.80
2019-02-19T11:52:29.171Z,3.80
2019-02-19T11:54:59.540Z,3.90
2019-02-19T11:57:29.996Z,4.47
2019-02-19T12:00:00.416Z,4.30
2019-02-19T12:02:32.973Z,5.55
2019-02-19T12:05:02.945Z,4.60
2019-02-19T12:07:33.435Z,4.20
2019-02-19T12:10:06.115Z,4.40
2019-02-19T12:12:36.616Z,5.03
2019-02-19T12:15:09.729Z,5.20
2019-02-19T12:20:53.744Z,5.77
2019-02-19T12:23:24.424Z,4.27
2019-02-19T12:25:55.707Z,5.23
2019-02-19T12:34:47.354Z,4.67
2019-02-19T12:43:31.544Z,4.17
2019-02-19T14:20:12.597Z,8.10
2019-02-19T14:30:02.328Z,6.10
2019-02-19T14:32:50.997Z,8.03
2019-02-19T14:35:45.061Z,7.67
2019-02-19T14:38:28.523Z,6.93
2019-02-19T14:57:13.571Z,7.80
2019-02-19T14:59:49.704Z,8.37
2019-02-19T15:02:40.180Z,9.57
2019-02-19T15:05:27.620Z,11.13
2019-02-19T15:08:21.817Z,12.23
2019-02-19T15:11:08.471Z,14.57
2019-02-19T15:38:57.112Z,19.73
2019-02-19T15:41:33.412Z,18.80
2019-02-19T15:44:33.358Z,21.53
2019-02-19T15:47:36.113Z,28.32
2019-02-19T15:50:31.190Z,26.40
2019-02-19T16:05:02.431Z,26.93
2019-02-19T16:07:38.498Z,26.20
2019-02-19T16:10:10.592Z,23.87
2019-02-19T16:12:48.485Z,22.33
2019-02-19T16:15:23.280Z,18.70
2019-02-19T16:18:04.261Z,19.23
2019-02-19T16:54:55.469Z,38.50
2019-02-19T16:57:28.725Z,17.90
2019-02-19T17:00:12.829Z,14.90
2019-02-19T17:02:48.488Z,12.27
2019-02-19T17:05:37.190Z,14.20
2019-02-19T17:08:15.569Z,14.50
2019-02-19T17:10:51.758Z,13.10
2019-02-19T17:13:25.844Z,13.93
2019-02-19T17:16:07.247Z,18.03
2019-02-19T17:30:52.420Z,18.37
2019-02-19T17:33:38.819Z,23.70
2019-02-19T17:36:25.109Z,19.73
2019-02-19T17:39:17.575Z,18.27
2019-02-19T17:41:53.213Z,22.17
2019-02-19T17:44:28.420Z,22.20
2019-02-19T17:47:00.593Z,20.53
2019-02-19T17:49:43.193Z,21.43
2019-02-19T17:52:34.076Z,21.30
2019-02-19T17:55:37.947Z,18.27
2019-02-19T17:58:26.105Z,16.33
2019-02-19T18:01:14.709Z,16.20
2019-02-19T18:03:48.637Z,14.73
2019-02-19T18:06:23.573Z,13.60
2019-02-19T18:09:11.784Z,13.77
2019-02-19T18:11:43.878Z,19.70
2019-02-19T18:14:19.145Z,15.63
2019-02-19T18:16:57.118Z,15.53
2019-02-19T18:19:27.600Z,15.10
2019-02-19T18:22:00.934Z,17.90
2019-02-19T18:24:31.454Z,17.87
2019-02-19T18:27:55.213Z,19.87
2019-02-19T18:30:26.913Z,18.90
2019-02-19T18:32:57.600Z,19.43
2019-02-19T18:35:28.350Z,19.77
2019-02-19T18:37:58.979Z,20.00
2019-02-19T18:40:35.059Z,18.97
2019-02-19T18:43:05.544Z,18.17
2019-02-19T18:45:36.077Z,18.90
2019-02-19T18:48:08.083Z,18.33
2019-02-19T18:50:40.337Z,22.43
2019-02-19T18:53:12.503Z,19.83
2019-02-19T18:55:43.262Z,19.20
2019-02-19T18:58:13.846Z,18.37
2019-02-19T19:00:48.136Z,18.17
2019-02-19T19:03:26.737Z,17.33
2019-02-19T19:05:57.417Z,14.67
2019-02-19T19:08:49.373Z,15.20
2019-02-19T19:11:22.066Z,14.43
2019-02-19T19:13:54.257Z,13.53
2019-02-19T19:16:33.636Z,14.57
2019-02-19T19:22:05.213Z,17.10
2019-02-19T19:24:35.875Z,17.90
2019-02-19T19:27:07.454Z,16.90
2019-02-19T19:29:37.937Z,17.13
2019-02-19T19:32:08.422Z,15.50
2019-02-19T19:34:39.905Z,15.17
2019-02-19T19:37:12.131Z,14.00
2019-02-19T19:39:42.647Z,15.10
2019-02-19T19:42:15.871Z,15.13
2019-02-19T19:44:52.144Z,17.25
2019-02-19T19:47:22.620Z,15.43
2019-02-19T19:49:53.196Z,12.20
2019-02-19T19:52:23.849Z,12.33
2019-02-19T19:54:54.479Z,14.07
2019-02-19T19:57:25.400Z,13.93
2019-02-19T19:59:55.949Z,15.00
2019-02-19T20:02:26.663Z,19.27
2019-02-19T20:04:57.213Z,12.83
2019-02-19T20:07:30.594Z,11.50
2019-02-19T20:10:06.777Z,13.77
2019-02-19T20:12:39.750Z,15.07
2019-02-19T20:15:12.116Z,15.20
2019-02-19T20:17:42.572Z,12.57
2019-02-19T20:20:13.895Z,9.80
2019-02-19T20:22:48.363Z,10.50
2019-02-19T20:25:18.843Z,9.50
2019-02-19T20:27:49.583Z,10.13
2019-02-19T20:30:20.345Z,9.03
2019-02-19T20:32:50.841Z,11.30
2019-02-19T20:35:22.793Z,8.93
2019-02-19T20:40:54.349Z,9.83
2019-02-19T20:43:24.785Z,10.40
2019-02-19T20:45:55.214Z,11.50
2019-02-19T20:48:25.829Z,13.27
2019-02-19T20:50:56.424Z,13.13
2019-02-19T20:53:30.062Z,12.73
2019-02-19T20:56:02.466Z,13.60
2019-02-19T20:58:34.000Z,12.80
2019-02-19T21:01:05.002Z,12.37
2019-02-19T21:03:37.054Z,16.17
2019-02-19T21:06:07.460Z,14.10
2019-02-19T21:08:38.470Z,13.00
2019-02-19T21:11:10.740Z,10.80
2019-02-19T21:13:41.188Z,14.30
2019-02-19T21:16:11.642Z,10.80
2019-02-19T21:18:42.257Z,11.23
2019-02-19T21:21:12.715Z,12.13
2019-02-19T21:23:43.244Z,10.83
2019-02-19T21:26:13.676Z,10.70
2019-02-19T21:28:44.130Z,11.20
2019-02-19T21:31:14.558Z,14.07
2019-02-19T21:33:46.470Z,10.60
2019-02-19T21:36:17.888Z,12.83
2019-02-19T21:38:48.726Z,13.57
2019-02-19T21:41:21.541Z,14.93
2019-02-19T21:43:51.936Z,12.67
2019-02-19T21:46:22.462Z,12.23
2019-02-19T21:48:52.884Z,11.40
2019-02-19T21:51:23.326Z,13.77
2019-02-19T21:53:53.853Z,11.77
2019-02-19T21:56:24.320Z,11.20
2019-02-19T21:58:55.466Z,11.33
2019-02-19T22:01:25.893Z,12.00
2019-02-19T22:03:56.371Z,12.20
2019-02-19T22:06:26.842Z,12.40
2019-02-19T22:08:57.450Z,11.60
2019-02-19T22:11:27.887Z,10.93
2019-02-19T22:13:58.382Z,9.47
2019-02-19T22:16:28.827Z,10.73
2019-02-19T22:18:59.339Z,10.10
2019-02-19T22:21:31.649Z,10.73
2019-02-19T22:24:02.393Z,9.93
2019-02-19T22:26:35.585Z,11.40
2019-02-19T22:29:06.096Z,9.87
2019-02-19T22:31:36.508Z,10.60
2019-02-19T22:36:42.974Z,9.97
2019-02-19T22:39:16.644Z,9.47
2019-02-19T22:41:47.171Z,10.10
2019-02-19T22:44:17.639Z,10.37
2019-02-19T22:46:48.175Z,9.20
2019-02-19T22:49:18.576Z,8.70
2019-02-19T22:51:49.097Z,9.47
2019-02-19T22:54:26.897Z,9.27
2019-02-19T22:56:57.394Z,12.53
2019-02-19T22:59:27.958Z,8.47
2019-02-19T23:01:59.955Z,8.30
2019-02-19T23:04:31.501Z,7.83
2019-02-19T23:07:01.923Z,7.27
2019-02-19T23:09:32.417Z,7.30
2019-02-19T23:12:02.821Z,7.13
2019-02-19T23:14:33.300Z,7.53
2019-02-19T23:17:03.759Z,7.60
2019-02-19T23:19:34.147Z,6.37
2019-02-19T23:22:04.576Z,10.57
2019-02-19T23:24:35.006Z,9.23
2019-02-19T23:27:05.512Z,9.90
2019-02-19T23:29:35.962Z,7.40
2019-02-19T23:32:06.322Z,7.57
2019-02-19T23:34:36.818Z,6.87
2019-02-19T23:37:07.267Z,8.83
2019-02-19T23:39:43.551Z,8.63
2019-02-19T23:42:09.793Z,9.87
2019-02-19T23:44:40.296Z,8.97
2019-02-19T23:47:10.688Z,9.40
2019-02-19T23:49:41.958Z,8.33
2019-02-19T23:52:12.381Z,7.83
2019-02-19T23:54:42.877Z,10.18
2019-02-19T23:57:13.298Z,8.23
2019-02-19T23:59:44.294Z,8.17
